createdAt,value
2018-06-08T00:00:16.574Z,26.37
2018-06-08T00:09:27.985Z,24.33
2018-06-08T00:18:43.276Z,25.33
2018-06-08T00:51:35.516Z,22.80
2018-06-08T03:08:05.845Z,35.47
2018-06-08T05:34:24.775Z,39.43
2018-06-08T05:43:51.525Z,42.03
2018-06-08T05:46:25.960Z,42.67
2018-06-08T05:52:30.753Z,43.47
2018-06-08T05:55:17.264Z,41.60
2018-06-08T06:04:42.631Z,44.00
2018-06-08T06:48:40.140Z,46.70
2018-06-08T06:55:08.350Z,47.10
2018-06-08T07:40:13.120Z,46.40
2018-06-08T07:56:47.107Z,44.57
2018-06-08T08:09:34.498Z,45.87
2018-06-08T08:12:33.315Z,48.10
2018-06-08T08:58:28.356Z,71.40
2018-06-08T09:01:27.139Z,82.37
2018-06-08T09:07:08.092Z,100.07
2018-06-08T09:12:58.615Z,89.97
2018-06-08T09:18:52.336Z,89.63
2018-06-08T09:24:46.664Z,93.70
2018-06-08T09:27:35.428Z,89.17
2018-06-08T09:30:05.595Z,86.10
2018-06-08T09:32:36.475Z,89.53
2018-06-08T09:35:08.498Z,84.67
2018-06-08T09:38:04.131Z,84.67
2018-06-08T09:40:33.160Z,92.47
2018-06-08T09:43:03.443Z,85.80
2018-06-08T09:45:34.109Z,82.47
2018-06-08T09:48:05.932Z,88.77
2018-06-08T09:50:35.483Z,86.93
2018-06-08T09:53:05.254Z,81.37
2018-06-08T09:55:35.289Z,74.10
2018-06-08T09:58:06.081Z,71.40
2018-06-08T10:00:45.090Z,71.00
2018-06-08T10:03:41.186Z,69.40
2018-06-08T10:06:16.972Z,73.50
2018-06-08T10:08:46.527Z,69.60
2018-06-08T10:11:23.316Z,67.70
2018-06-08T10:13:57.346Z,56.03
2018-06-08T10:16:28.179Z,58.27
2018-06-08T10:19:02.089Z,55.20
2018-06-08T10:22:16.536Z,54.47
2018-06-08T10:24:59.206Z,56.00
2018-06-08T10:30:42.679Z,48.87
2018-06-08T10:33:19.954Z,51.70
2018-06-08T10:35:52.370Z,50.20
2018-06-08T10:38:23.150Z,52.57
2018-06-08T10:41:00.270Z,53.07
2018-06-08T10:43:31.481Z,49.80
2018-06-08T10:46:01.471Z,51.40
2018-06-08T10:48:35.717Z,50.47
2018-06-08T10:57:36.574Z,50.80
2018-06-08T11:00:06.522Z,54.07
2018-06-08T11:02:45.888Z,55.37
2018-06-08T11:05:15.783Z,54.00
2018-06-08T11:07:58.287Z,53.77
2018-06-08T11:10:42.112Z,49.10
2018-06-08T11:29:49.377Z,40.43
2018-06-08T11:32:34.503Z,37.33
2018-06-08T11:35:03.767Z,38.37
2018-06-08T11:41:09.616Z,39.63
2018-06-08T11:43:40.134Z,39.67
2018-06-08T11:46:12.326Z,38.33
2018-06-08T11:48:45.608Z,39.70
2018-06-08T11:51:16.488Z,39.30
2018-06-08T11:53:53.166Z,52.60
2018-06-08T11:56:50.525Z,40.10
2018-06-08T11:59:24.799Z,40.60
2018-06-08T12:04:57.925Z,37.80
2018-06-08T12:07:32.213Z,36.13
2018-06-08T12:26:39.456Z,34.20
2018-06-08T12:29:24.230Z,32.80
2018-06-08T12:38:42.108Z,31.10
2018-06-08T12:45:19.812Z,29.80
2018-06-08T12:48:14.683Z,28.83
2018-06-08T12:54:44.461Z,27.37
2018-06-08T12:57:18.778Z,27.10
2018-06-08T13:09:53.287Z,27.67
2018-06-08T13:16:22.542Z,28.57
2018-06-08T13:39:09.478Z,29.37
2018-06-08T13:45:28.274Z,30.93
2018-06-08T13:51:07.140Z,33.50
2018-06-08T14:03:24.236Z,28.27
2018-06-08T14:12:51.508Z,29.93
2018-06-08T14:18:57.856Z,31.80
2018-06-08T14:24:23.374Z,31.20
2018-06-08T14:26:53.807Z,29.53
2018-06-08T14:30:03.606Z,28.50
2018-06-08T14:32:58.754Z,28.70
2018-06-08T14:35:29.089Z,27.83
2018-06-08T14:38:00.112Z,25.30
2018-06-08T14:40:32.799Z,27.40
2018-06-08T14:43:02.817Z,24.20
2018-06-08T14:45:33.186Z,28.17
2018-06-08T14:48:05.423Z,24.40
2018-06-08T14:50:39.581Z,22.07
2018-06-08T14:53:11.638Z,21.87
2018-06-08T14:55:44.702Z,22.87
2018-06-08T14:58:27.590Z,22.97
2018-06-08T15:01:13.711Z,21.73
2018-06-08T15:03:47.395Z,22.80
2018-06-08T15:06:18.859Z,23.13
2018-06-08T15:08:48.650Z,21.20
2018-06-08T15:11:18.923Z,22.00
2018-06-08T15:13:48.440Z,20.27
2018-06-08T15:16:19.468Z,21.50
2018-06-08T15:18:49.495Z,19.27
2018-06-08T15:21:32.332Z,20.53
2018-06-08T15:24:03.328Z,21.80
2018-06-08T15:26:40.343Z,23.70
2018-06-08T15:29:09.303Z,23.13
2018-06-08T15:31:39.928Z,23.50
2018-06-08T15:34:10.320Z,23.37
2018-06-08T15:36:41.487Z,23.50
2018-06-08T15:39:11.853Z,23.83
2018-06-08T15:41:42.363Z,24.63
2018-06-08T15:44:12.243Z,24.70
2018-06-08T15:46:43.460Z,26.10
2018-06-08T15:49:13.754Z,21.83
2018-06-08T15:51:44.355Z,23.60
2018-06-08T15:54:13.970Z,24.10
2018-06-08T15:56:44.556Z,22.73
2018-06-08T15:59:15.203Z,21.07
2018-06-08T16:01:44.959Z,20.10
2018-06-08T16:04:17.885Z,20.20
2018-06-08T16:06:47.512Z,22.13
2018-06-08T16:09:17.686Z,22.57
2018-06-08T16:11:52.568Z,25.37
2018-06-08T16:14:23.180Z,24.20
2018-06-08T16:16:53.626Z,24.87
2018-06-08T16:19:24.499Z,27.17
2018-06-08T16:21:57.467Z,27.50
2018-06-08T16:31:08.483Z,25.30
2018-06-08T16:34:16.955Z,27.80
2018-06-08T16:46:36.733Z,30.67
2018-06-08T16:59:08.567Z,32.13
2018-06-08T17:14:03.314Z,31.03
2018-06-08T17:23:04.553Z,34.63
2018-06-08T17:29:07.908Z,34.13
2018-06-08T17:38:21.119Z,35.03
2018-06-08T17:50:21.358Z,37.03
2018-06-08T17:52:51.886Z,37.13
2018-06-08T18:02:23.207Z,37.07
2018-06-08T18:05:09.176Z,37.50
2018-06-08T18:10:58.639Z,35.60
2018-06-08T18:20:09.890Z,37.30
2018-06-08T18:22:39.898Z,37.40
2018-06-08T18:25:10.310Z,38.27
2018-06-08T18:27:40.679Z,39.97
2018-06-08T18:30:10.712Z,40.53
2018-06-08T18:32:40.910Z,38.53
2018-06-08T18:35:11.125Z,41.03
2018-06-08T18:37:41.103Z,38.60
2018-06-08T18:40:11.604Z,39.67
2018-06-08T18:42:41.902Z,44.00
2018-06-08T18:45:12.030Z,39.47
2018-06-08T18:47:44.602Z,42.27
2018-06-08T18:50:14.389Z,42.47
2018-06-08T18:52:43.500Z,39.37
2018-06-08T18:55:15.919Z,40.87
2018-06-08T18:57:46.031Z,42.70
2018-06-08T19:00:26.897Z,43.17
2018-06-08T19:02:57.606Z,44.10
2018-06-08T19:05:27.903Z,46.33
2018-06-08T19:07:57.820Z,44.90
2018-06-08T19:10:37.960Z,48.10
2018-06-08T19:13:24.689Z,46.27
2018-06-08T19:15:55.719Z,46.77
2018-06-08T19:18:25.582Z,44.97
2018-06-08T19:20:55.738Z,47.50
2018-06-08T19:23:26.087Z,47.07
2018-06-08T19:25:56.819Z,46.80
2018-06-08T19:28:33.679Z,46.07
2018-06-08T19:31:04.530Z,47.77
2018-06-08T19:33:34.501Z,48.90
2018-06-08T19:39:07.901Z,46.37
2018-06-08T19:41:39.161Z,47.03
2018-06-08T19:44:11.933Z,47.47
2018-06-08T19:46:42.245Z,46.83
2018-06-08T19:49:12.116Z,45.90
2018-06-08T19:51:42.724Z,46.23
2018-06-08T19:54:12.735Z,47.33
2018-06-08T19:56:42.378Z,47.53
2018-06-08T19:59:12.175Z,51.20
2018-06-08T20:01:42.418Z,52.50
2018-06-08T20:04:11.601Z,53.90
2018-06-08T20:06:46.233Z,54.77
2018-06-08T20:09:16.495Z,54.80
2018-06-08T20:11:47.651Z,53.33
2018-06-08T20:14:18.939Z,53.13
2018-06-08T20:16:59.572Z,51.80
2018-06-08T20:19:29.376Z,53.90
2018-06-08T20:22:09.648Z,55.63
2018-06-08T20:24:39.669Z,55.83
2018-06-08T20:27:09.655Z,56.83
2018-06-08T20:29:39.557Z,56.13
2018-06-08T20:32:09.863Z,56.70
2018-06-08T20:34:40.093Z,57.50
2018-06-08T20:37:10.490Z,58.40
2018-06-08T20:39:41.942Z,57.70
2018-06-08T20:42:11.817Z,58.87
2018-06-08T20:44:42.404Z,57.77
2018-06-08T20:47:14.123Z,57.10
2018-06-08T20:50:01.320Z,54.40
2018-06-08T20:52:32.209Z,54.40
2018-06-08T20:55:03.271Z,55.00
2018-06-08T20:57:33.324Z,55.40
2018-06-08T21:02:39.646Z,54.10
2018-06-08T21:05:22.583Z,53.70
2018-06-08T21:07:59.589Z,53.67
2018-06-08T21:10:31.628Z,56.13
2018-06-08T21:13:02.785Z,56.90
2018-06-08T21:15:33.046Z,56.40
2018-06-08T21:18:03.577Z,57.73
2018-06-08T21:20:34.454Z,57.97
2018-06-08T21:23:04.198Z,59.10
2018-06-08T21:25:37.115Z,60.83
2018-06-08T21:28:07.081Z,59.90
2018-06-08T21:30:41.478Z,61.73
2018-06-08T21:33:12.021Z,62.57
2018-06-08T21:35:41.898Z,60.10
2018-06-08T21:38:12.697Z,64.90
2018-06-08T21:40:45.036Z,64.13
2018-06-08T21:43:15.166Z,66.17
2018-06-08T21:45:44.748Z,64.47
2018-06-08T21:48:15.548Z,63.90
2018-06-08T21:50:47.608Z,64.47
2018-06-08T21:55:51.981Z,67.43
2018-06-08T21:58:21.814Z,75.20
2018-06-08T22:00:52.366Z,71.70
2018-06-08T22:03:22.729Z,70.77
2018-06-08T22:05:54.120Z,69.50
2018-06-08T22:08:24.366Z,69.73
2018-06-08T22:10:54.927Z,66.13
2018-06-08T22:13:25.345Z,70.87
2018-06-08T22:15:56.422Z,68.73
2018-06-08T22:18:27.325Z,67.30
2018-06-08T22:21:00.353Z,65.20
2018-06-08T22:23:31.480Z,66.10
2018-06-08T22:26:02.022Z,68.67
2018-06-08T22:28:32.384Z,66.97
2018-06-08T22:31:03.047Z,66.10
2018-06-08T22:33:32.980Z,68.53
2018-06-08T22:36:03.105Z,69.63
2018-06-08T22:38:33.358Z,72.20
2018-06-08T22:41:03.273Z,65.00
2018-06-08T22:43:33.058Z,66.90
2018-06-08T22:46:03.940Z,69.53
2018-06-08T22:48:39.077Z,65.27
2018-06-08T22:51:09.609Z,66.93
2018-06-08T22:53:44.520Z,61.80
2018-06-08T22:56:17.750Z,65.23
2018-06-08T22:58:50.096Z,64.50
2018-06-08T23:01:20.605Z,64.20
2018-06-08T23:03:52.726Z,65.57
2018-06-08T23:06:30.047Z,63.67
2018-06-08T23:09:04.619Z,64.23
2018-06-08T23:11:43.776Z,60.67
2018-06-08T23:14:20.693Z,62.07
2018-06-08T23:20:19.157Z,64.97
2018-06-08T23:22:53.365Z,65.30
2018-06-08T23:25:27.366Z,65.93
2018-06-08T23:28:01.607Z,63.63
2018-06-08T23:30:36.064Z,66.13
2018-06-08T23:33:09.861Z,66.37
2018-06-08T23:35:44.804Z,67.37
2018-06-08T23:38:18.415Z,68.60
2018-06-08T23:40:52.200Z,72.17
2018-06-08T23:43:30.685Z,71.87
2018-06-08T23:46:08.377Z,73.33
2018-06-08T23:48:50.864Z,74.80
2018-06-08T23:51:24.352Z,71.37
2018-06-08T23:54:03.276Z,75.93
2018-06-08T23:56:37.679Z,74.00
2018-06-08T23:59:11.395Z,77.70
